sensor_id;sensor_type;location;lat;lon;timestamp;P1;durP1;ratioP1;P2;durP2;ratioP2
7529;SDS011;3806;52.270;10.544;2024-02-28T00:01:37;11.07;;;7.35;;
7529;SDS011;3806;52.270;10.544;2024-02-28T00:04:02;10.05;;;7.43;;
7529;SDS011;3806;52.270;10.544;2024-02-28T00:06:28;11.38;;;7.03;;
7529;SDS011;3806;52.270;10.544;2024-02-28T00:08:54;10.88;;;7.32;;
7529;SDS011;3806;52.270;10.544;2024-02-28T00:11:19;11.90;;;7.63;;
7529;SDS011;3806;52.270;10.544;2024-02-28T00:13:45;13.57;;;7.70;;
7529;SDS011;3806;52.270;10.544;2024-02-28T00:16:11;12.23;;;7.57;;
7529;SDS011;3806;52.270;10.544;2024-02-28T00:18:36;13.23;;;8.20;;
7529;SDS011;3806;52.270;10.544;2024-02-28T00:21:02;12.50;;;7.63;;
7529;SDS011;3806;52.270;10.544;2024-02-28T00:23:28;14.25;;;7.40;;
7529;SDS011;3806;52.270;10.544;2024-02-28T00:25:54;13.18;;;8.10;;
7529;SDS011;3806;52.270;10.544;2024-02-28T00:28:20;15.25;;;8.20;;
7529;SDS011;3806;52.270;10.544;2024-02-28T00:30:46;10.45;;;6.72;;
7529;SDS011;3806;52.270;10.544;2024-02-28T00:33:11;12.52;;;7.45;;
7529;SDS011;3806;52.270;10.544;2024-02-28T00:35:37;11.82;;;8.15;;
7529;SDS011;3806;52.270;10.544;2024-02-28T00:38:04;11.25;;;7.90;;
7529;SDS011;3806;52.270;10.544;2024-02-28T00:40:30;13.93;;;8.85;;
7529;SDS011;3806;52.270;10.544;2024-02-28T00:42:56;11.63;;;7.10;;
7529;SDS011;3806;52.270;10.544;2024-02-28T00:45:22;14.13;;;7.97;;
7529;SDS011;3806;52.270;10.544;2024-02-28T00:47:48;12.45;;;6.97;;
7529;SDS011;3806;52.270;10.544;2024-02-28T00:50:13;10.52;;;6.97;;
7529;SDS011;3806;52.270;10.544;2024-02-28T00:52:39;13.93;;;7.05;;
7529;SDS011;3806;52.270;10.544;2024-02-28T00:55:05;12.35;;;6.95;;
7529;SDS011;3806;52.270;10.544;2024-02-28T00:57:31;13.30;;;7.30;;
7529;SDS011;3806;52.270;10.544;2024-02-28T00:59:56;11.07;;;7.60;;
7529;SDS011;3806;52.270;10.544;2024-02-28T01:02:22;10.50;;;7.07;;
7529;SDS011;3806;52.270;10.544;2024-02-28T01:04:47;13.40;;;7.97;;
7529;SDS011;3806;52.270;10.544;2024-02-28T01:07:13;12.82;;;7.03;;
7529;SDS011;3806;52.270;10.544;2024-02-28T01:09:38;13.55;;;7.35;;
7529;SDS011;3806;52.270;10.544;2024-02-28T01:12:04;11.02;;;6.65;;
7529;SDS011;3806;52.270;10.544;2024-02-28T01:14:30;13.50;;;6.25;;
7529;SDS011;3806;52.270;10.544;2024-02-28T01:16:55;11.52;;;6.53;;
7529;SDS011;3806;52.270;10.544;2024-02-28T01:19:20;10.80;;;6.65;;
7529;SDS011;3806;52.270;10.544;2024-02-28T01:21:46;12.52;;;7.35;;
7529;SDS011;3806;52.270;10.544;2024-02-28T01:24:11;11.60;;;6.90;;
7529;SDS011;3806;52.270;10.544;2024-02-28T01:26:37;10.65;;;6.95;;
7529;SDS011;3806;52.270;10.544;2024-02-28T01:29:02;11.10;;;7.90;;
7529;SDS011;3806;52.270;10.544;2024-02-28T01:31:28;12.73;;;7.78;;
7529;SDS011;3806;52.270;10.544;2024-02-28T01:33:53;12.40;;;8.02;;
7529;SDS011;3806;52.270;10.544;2024-02-28T01:36:20;9.00;;;6.18;;
7529;SDS011;3806;52.270;10.544;2024-02-28T01:38:46;11.48;;;8.27;;
7529;SDS011;3806;52.270;10.544;2024-02-28T01:41:11;12.88;;;7.25;;
7529;SDS011;3806;52.270;10.544;2024-02-28T01:43:37;12.02;;;6.90;;
7529;SDS011;3806;52.270;10.544;2024-02-28T01:46:03;12.20;;;8.50;;
7529;SDS011;3806;52.270;10.544;2024-02-28T01:48:35;10.52;;;7.68;;
7529;SDS011;3806;52.270;10.544;2024-02-28T01:51:01;12.40;;;7.35;;
7529;SDS011;3806;52.270;10.544;2024-02-28T01:53:27;11.45;;;7.30;;
7529;SDS011;3806;52.270;10.544;2024-02-28T01:55:53;10.50;;;5.95;;
7529;SDS011;3806;52.270;10.544;2024-02-28T01:58:19;11.10;;;7.85;;
7529;SDS011;3806;52.270;10.544;2024-02-28T02:00:45;12.30;;;6.82;;
7529;SDS011;3806;52.270;10.544;2024-02-28T02:03:11;10.30;;;6.90;;
7529;SDS011;3806;52.270;10.544;2024-02-28T02:05:37;11.85;;;7.45;;
7529;SDS011;3806;52.270;10.544;2024-02-28T02:08:03;12.05;;;7.47;;
7529;SDS011;3806;52.270;10.544;2024-02-28T02:10:28;11.77;;;7.30;;
7529;SDS011;3806;52.270;10.544;2024-02-28T02:12:55;15.32;;;8.98;;
7529;SDS011;3806;52.270;10.544;2024-02-28T02:15:20;14.10;;;9.70;;
7529;SDS011;3806;52.270;10.544;2024-02-28T02:17:46;13.10;;;8.40;;
7529;SDS011;3806;52.270;10.544;2024-02-28T02:20:11;14.68;;;8.98;;
7529;SDS011;3806;52.270;10.544;2024-02-28T02:22:39;13.85;;;8.55;;
7529;SDS011;3806;52.270;10.544;2024-02-28T02:25:05;19.08;;;9.60;;
7529;SDS011;3806;52.270;10.544;2024-02-28T02:27:31;14.60;;;9.52;;
7529;SDS011;3806;52.270;10.544;2024-02-28T02:29:56;14.80;;;9.00;;
7529;SDS011;3806;52.270;10.544;2024-02-28T02:32:22;15.27;;;9.43;;
7529;SDS011;3806;52.270;10.544;2024-02-28T02:34:47;18.20;;;9.80;;
7529;SDS011;3806;52.270;10.544;2024-02-28T02:37:13;15.40;;;9.73;;
7529;SDS011;3806;52.270;10.544;2024-02-28T02:39:38;14.32;;;9.43;;
7529;SDS011;3806;52.270;10.544;2024-02-28T02:42:04;14.98;;;9.93;;
7529;SDS011;3806;52.270;10.544;2024-02-28T02:44:29;18.45;;;9.98;;
7529;SDS011;3806;52.270;10.544;2024-02-28T02:46:55;18.00;;;10.43;;
7529;SDS011;3806;52.270;10.544;2024-02-28T02:49:20;15.23;;;9.80;;
7529;SDS011;3806;52.270;10.544;2024-02-28T02:51:46;17.08;;;8.98;;
7529;SDS011;3806;52.270;10.544;2024-02-28T02:54:11;15.48;;;9.48;;
7529;SDS011;3806;52.270;10.544;2024-02-28T02:56:37;17.92;;;9.43;;
7529;SDS011;3806;52.270;10.544;2024-02-28T02:59:07;16.38;;;9.90;;
7529;SDS011;3806;52.270;10.544;2024-02-28T03:01:32;15.65;;;9.90;;
7529;SDS011;3806;52.270;10.544;2024-02-28T03:03:58;19.02;;;11.30;;
7529;SDS011;3806;52.270;10.544;2024-02-28T03:06:23;20.27;;;10.57;;
7529;SDS011;3806;52.270;10.544;2024-02-28T03:08:49;17.83;;;10.95;;
7529;SDS011;3806;52.270;10.544;2024-02-28T03:11:14;18.95;;;11.60;;
7529;SDS011;3806;52.270;10.544;2024-02-28T03:13:40;17.42;;;10.27;;
7529;SDS011;3806;52.270;10.544;2024-02-28T03:16:05;18.85;;;10.68;;
7529;SDS011;3806;52.270;10.544;2024-02-28T03:18:31;19.25;;;11.85;;
7529;SDS011;3806;52.270;10.544;2024-02-28T03:20:57;19.27;;;11.32;;
7529;SDS011;3806;52.270;10.544;2024-02-28T03:23:22;18.30;;;10.85;;
7529;SDS011;3806;52.270;10.544;2024-02-28T03:25:48;16.90;;;10.85;;
7529;SDS011;3806;52.270;10.544;2024-02-28T03:28:13;22.85;;;11.45;;
7529;SDS011;3806;52.270;10.544;2024-02-28T03:30:39;19.02;;;11.27;;
7529;SDS011;3806;52.270;10.544;2024-02-28T03:33:04;20.48;;;11.48;;
7529;SDS011;3806;52.270;10.544;2024-02-28T03:35:30;19.75;;;11.68;;
7529;SDS011;3806;52.270;10.544;2024-02-28T03:37:55;20.60;;;12.45;;
7529;SDS011;3806;52.270;10.544;2024-02-28T03:40:21;17.25;;;10.80;;
7529;SDS011;3806;52.270;10.544;2024-02-28T03:42:46;20.65;;;11.68;;
7529;SDS011;3806;52.270;10.544;2024-02-28T03:45:12;21.77;;;11.73;;
7529;SDS011;3806;52.270;10.544;2024-02-28T03:47:37;19.83;;;12.02;;
7529;SDS011;3806;52.270;10.544;2024-02-28T03:50:03;19.30;;;10.57;;
7529;SDS011;3806;52.270;10.544;2024-02-28T03:52:29;17.83;;;11.15;;
7529;SDS011;3806;52.270;10.544;2024-02-28T03:54:55;21.30;;;11.30;;
7529;SDS011;3806;52.270;10.544;2024-02-28T03:57:22;22.85;;;12.38;;
7529;SDS011;3806;52.270;10.544;2024-02-28T03:59:47;22.30;;;12.32;;
7529;SDS011;3806;52.270;10.544;2024-02-28T04:02:13;21.52;;;12.05;;
7529;SDS011;3806;52.270;10.544;2024-02-28T04:04:39;21.00;;;12.00;;
7529;SDS011;3806;52.270;10.544;2024-02-28T04:07:04;18.30;;;10.88;;
7529;SDS011;3806;52.270;10.544;2024-02-28T04:09:30;18.42;;;11.57;;
7529;SDS011;3806;52.270;10.544;2024-02-28T04:11:56;21.10;;;11.45;;
7529;SDS011;3806;52.270;10.544;2024-02-28T04:14:21;25.20;;;12.88;;
7529;SDS011;3806;52.270;10.544;2024-02-28T04:16:47;24.67;;;11.00;;
7529;SDS011;3806;52.270;10.544;2024-02-28T04:19:15;22.38;;;13.30;;
7529;SDS011;3806;52.270;10.544;2024-02-28T04:21:40;23.65;;;12.77;;
7529;SDS011;3806;52.270;10.544;2024-02-28T04:24:06;23.98;;;12.57;;
7529;SDS011;3806;52.270;10.544;2024-02-28T04:26:32;19.58;;;12.05;;
7529;SDS011;3806;52.270;10.544;2024-02-28T04:28:58;23.58;;;13.23;;
7529;SDS011;3806;52.270;10.544;2024-02-28T04:31:26;21.95;;;12.73;;
7529;SDS011;3806;52.270;10.544;2024-02-28T04:33:52;22.48;;;12.85;;
7529;SDS011;3806;52.270;10.544;2024-02-28T04:36:17;25.33;;;12.77;;
7529;SDS011;3806;52.270;10.544;2024-02-28T04:38:43;20.48;;;11.93;;
7529;SDS011;3806;52.270;10.544;2024-02-28T04:41:08;21.30;;;11.25;;
7529;SDS011;3806;52.270;10.544;2024-02-28T04:43:34;22.95;;;12.45;;
7529;SDS011;3806;52.270;10.544;2024-02-28T04:45:59;17.90;;;10.27;;
7529;SDS011;3806;52.270;10.544;2024-02-28T04:48:25;17.48;;;10.07;;
7529;SDS011;3806;52.270;10.544;2024-02-28T04:50:51;18.27;;;10.40;;
7529;SDS011;3806;52.270;10.544;2024-02-28T04:53:17;18.05;;;10.32;;
7529;SDS011;3806;52.270;10.544;2024-02-28T04:55:42;16.00;;;9.90;;
7529;SDS011;3806;52.270;10.544;2024-02-28T04:58:08;18.48;;;9.93;;
7529;SDS011;3806;52.270;10.544;2024-02-28T05:00:33;17.48;;;10.15;;
7529;SDS011;3806;52.270;10.544;2024-02-28T05:02:59;21.55;;;10.25;;
7529;SDS011;3806;52.270;10.544;2024-02-28T05:05:24;16.90;;;9.45;;
7529;SDS011;3806;52.270;10.544;2024-02-28T05:07:50;15.70;;;10.23;;
7529;SDS011;3806;52.270;10.544;2024-02-28T05:10:16;19.95;;;9.80;;
7529;SDS011;3806;52.270;10.544;2024-02-28T05:12:41;18.75;;;10.30;;
7529;SDS011;3806;52.270;10.544;2024-02-28T05:15:07;15.02;;;9.15;;
7529;SDS011;3806;52.270;10.544;2024-02-28T05:17:33;14.98;;;9.32;;
7529;SDS011;3806;52.270;10.544;2024-02-28T05:19:58;14.88;;;8.50;;
7529;SDS011;3806;52.270;10.544;2024-02-28T05:22:24;15.38;;;8.88;;
7529;SDS011;3806;52.270;10.544;2024-02-28T05:24:49;16.08;;;8.45;;
7529;SDS011;3806;52.270;10.544;2024-02-28T05:27:15;14.35;;;8.02;;
7529;SDS011;3806;52.270;10.544;2024-02-28T05:29:40;15.57;;;8.98;;
7529;SDS011;3806;52.270;10.544;2024-02-28T05:32:08;13.95;;;8.60;;
7529;SDS011;3806;52.270;10.544;2024-02-28T05:34:34;14.13;;;8.45;;
7529;SDS011;3806;52.270;10.544;2024-02-28T05:36:59;14.32;;;8.20;;
7529;SDS011;3806;52.270;10.544;2024-02-28T05:39:26;17.73;;;9.25;;
7529;SDS011;3806;52.270;10.544;2024-02-28T05:41:54;15.52;;;9.13;;
7529;SDS011;3806;52.270;10.544;2024-02-28T05:44:20;17.73;;;9.32;;
7529;SDS011;3806;52.270;10.544;2024-02-28T05:46:45;14.93;;;9.50;;
7529;SDS011;3806;52.270;10.544;2024-02-28T05:49:11;15.32;;;8.50;;
7529;SDS011;3806;52.270;10.544;2024-02-28T05:51:36;18.88;;;9.85;;
7529;SDS011;3806;52.270;10.544;2024-02-28T05:54:02;17.27;;;9.32;;
7529;SDS011;3806;52.270;10.544;2024-02-28T05:56:28;17.55;;;8.80;;
7529;SDS011;3806;52.270;10.544;2024-02-28T05:58:55;17.50;;;9.90;;
7529;SDS011;3806;52.270;10.544;2024-02-28T06:01:20;17.90;;;9.75;;
7529;SDS011;3806;52.270;10.544;2024-02-28T06:03:48;18.25;;;9.50;;
7529;SDS011;3806;52.270;10.544;2024-02-28T06:06:14;17.50;;;9.88;;
7529;SDS011;3806;52.270;10.544;2024-02-28T06:08:40;17.75;;;10.45;;
7529;SDS011;3806;52.270;10.544;2024-02-28T06:11:06;19.23;;;9.85;;
7529;SDS011;3806;52.270;10.544;2024-02-28T06:13:32;16.15;;;10.15;;
7529;SDS011;3806;52.270;10.544;2024-02-28T06:15:58;15.82;;;9.20;;
7529;SDS011;3806;52.270;10.544;2024-02-28T06:18:25;16.45;;;9.50;;
7529;SDS011;3806;52.270;10.544;2024-02-28T06:20:58;16.08;;;9.43;;
7529;SDS011;3806;52.270;10.544;2024-02-28T06:23:24;16.42;;;9.13;;
7529;SDS011;3806;52.270;10.544;2024-02-28T06:25:49;18.48;;;9.55;;
7529;SDS011;3806;52.270;10.544;2024-02-28T06:28:15;16.75;;;9.27;;
7529;SDS011;3806;52.270;10.544;2024-02-28T06:30:42;18.05;;;8.68;;
7529;SDS011;3806;52.270;10.544;2024-02-28T06:33:09;18.20;;;9.10;;
7529;SDS011;3806;52.270;10.544;2024-02-28T06:35:34;18.02;;;9.20;;
7529;SDS011;3806;52.270;10.544;2024-02-28T06:38:00;19.25;;;9.35;;
7529;SDS011;3806;52.270;10.544;2024-02-28T06:40:26;17.23;;;10.05;;
7529;SDS011;3806;52.270;10.544;2024-02-28T06:42:51;17.27;;;9.60;;
7529;SDS011;3806;52.270;10.544;2024-02-28T06:45:17;19.77;;;9.40;;
7529;SDS011;3806;52.270;10.544;2024-02-28T06:47:42;17.20;;;9.48;;
7529;SDS011;3806;52.270;10.544;2024-02-28T06:50:10;13.25;;;8.75;;
7529;SDS011;3806;52.270;10.544;2024-02-28T06:52:36;17.17;;;10.57;;
7529;SDS011;3806;52.270;10.544;2024-02-28T06:55:02;17.75;;;9.35;;
7529;SDS011;3806;52.270;10.544;2024-02-28T06:57:35;17.45;;;10.20;;
7529;SDS011;3806;52.270;10.544;2024-02-28T07:00:02;23.98;;;12.20;;
7529;SDS011;3806;52.270;10.544;2024-02-28T07:02:29;24.80;;;12.10;;
7529;SDS011;3806;52.270;10.544;2024-02-28T07:04:54;25.73;;;12.98;;
7529;SDS011;3806;52.270;10.544;2024-02-28T07:07:20;20.55;;;11.70;;
7529;SDS011;3806;52.270;10.544;2024-02-28T07:09:46;20.63;;;11.55;;
7529;SDS011;3806;52.270;10.544;2024-02-28T07:12:12;22.60;;;12.45;;
7529;SDS011;3806;52.270;10.544;2024-02-28T07:14:37;23.05;;;10.95;;
7529;SDS011;3806;52.270;10.544;2024-02-28T07:17:03;24.05;;;12.43;;
7529;SDS011;3806;52.270;10.544;2024-02-28T07:19:29;25.00;;;12.88;;
7529;SDS011;3806;52.270;10.544;2024-02-28T07:21:54;24.48;;;12.15;;
7529;SDS011;3806;52.270;10.544;2024-02-28T07:24:19;23.50;;;12.07;;
7529;SDS011;3806;52.270;10.544;2024-02-28T07:26:45;24.30;;;12.68;;
7529;SDS011;3806;52.270;10.544;2024-02-28T07:29:11;23.60;;;12.15;;
7529;SDS011;3806;52.270;10.544;2024-02-28T07:31:37;25.75;;;13.43;;
7529;SDS011;3806;52.270;10.544;2024-02-28T07:34:02;22.63;;;12.07;;
7529;SDS011;3806;52.270;10.544;2024-02-28T07:36:28;23.52;;;12.63;;
7529;SDS011;3806;52.270;10.544;2024-02-28T07:38:53;23.45;;;12.23;;
7529;SDS011;3806;52.270;10.544;2024-02-28T07:41:19;24.90;;;12.35;;
7529;SDS011;3806;52.270;10.544;2024-02-28T07:43:45;26.98;;;12.80;;
7529;SDS011;3806;52.270;10.544;2024-02-28T07:46:11;23.02;;;13.65;;
7529;SDS011;3806;52.270;10.544;2024-02-28T07:48:37;28.17;;;13.90;;
7529;SDS011;3806;52.270;10.544;2024-02-28T07:51:06;23.42;;;12.15;;
7529;SDS011;3806;52.270;10.544;2024-02-28T07:53:32;25.00;;;12.70;;
7529;SDS011;3806;52.270;10.544;2024-02-28T07:55:58;20.42;;;12.63;;
7529;SDS011;3806;52.270;10.544;2024-02-28T07:58:23;22.75;;;12.90;;
7529;SDS011;3806;52.270;10.544;2024-02-28T08:00:49;21.20;;;13.13;;
7529;SDS011;3806;52.270;10.544;2024-02-28T08:03:15;28.02;;;14.10;;
7529;SDS011;3806;52.270;10.544;2024-02-28T08:05:41;24.40;;;12.65;;
7529;SDS011;3806;52.270;10.544;2024-02-28T08:08:08;25.38;;;12.38;;
7529;SDS011;3806;52.270;10.544;2024-02-28T08:10:34;22.08;;;10.98;;
7529;SDS011;3806;52.270;10.544;2024-02-28T08:13:00;24.85;;;13.07;;
7529;SDS011;3806;52.270;10.544;2024-02-28T08:15:26;21.63;;;11.98;;
7529;SDS011;3806;52.270;10.544;2024-02-28T08:17:51;21.23;;;12.07;;
7529;SDS011;3806;52.270;10.544;2024-02-28T08:20:17;23.80;;;11.93;;
7529;SDS011;3806;52.270;10.544;2024-02-28T08:22:43;24.83;;;12.73;;
7529;SDS011;3806;52.270;10.544;2024-02-28T08:25:08;22.52;;;13.05;;
7529;SDS011;3806;52.270;10.544;2024-02-28T08:27:36;21.50;;;12.80;;
7529;SDS011;3806;52.270;10.544;2024-02-28T08:30:02;24.17;;;13.07;;
7529;SDS011;3806;52.270;10.544;2024-02-28T08:32:28;24.45;;;12.63;;
7529;SDS011;3806;52.270;10.544;2024-02-28T08:34:54;24.60;;;12.35;;
7529;SDS011;3806;52.270;10.544;2024-02-28T08:37:19;19.75;;;12.10;;
7529;SDS011;3806;52.270;10.544;2024-02-28T08:39:45;24.23;;;11.55;;
7529;SDS011;3806;52.270;10.544;2024-02-28T08:42:11;19.30;;;10.85;;
7529;SDS011;3806;52.270;10.544;2024-02-28T08:44:37;19.63;;;11.02;;
7529;SDS011;3806;52.270;10.544;2024-02-28T08:47:03;23.20;;;11.77;;
7529;SDS011;3806;52.270;10.544;2024-02-28T08:49:28;24.05;;;11.45;;
7529;SDS011;3806;52.270;10.544;2024-02-28T08:51:55;23.20;;;11.82;;
7529;SDS011;3806;52.270;10.544;2024-02-28T08:54:21;24.60;;;11.85;;
7529;SDS011;3806;52.270;10.544;2024-02-28T08:56:46;25.00;;;12.30;;
7529;SDS011;3806;52.270;10.544;2024-02-28T08:59:12;23.92;;;10.98;;
7529;SDS011;3806;52.270;10.544;2024-02-28T09:01:38;23.08;;;12.02;;
7529;SDS011;3806;52.270;10.544;2024-02-28T09:04:06;21.55;;;10.93;;
7529;SDS011;3806;52.270;10.544;2024-02-28T09:06:31;19.48;;;10.27;;
7529;SDS011;3806;52.270;10.544;2024-02-28T09:08:57;20.02;;;9.93;;
7529;SDS011;3806;52.270;10.544;2024-02-28T09:11:23;20.02;;;10.13;;
7529;SDS011;3806;52.270;10.544;2024-02-28T09:13:50;19.63;;;10.98;;
7529;SDS011;3806;52.270;10.544;2024-02-28T09:16:16;20.20;;;11.18;;
7529;SDS011;3806;52.270;10.544;2024-02-28T09:18:42;18.25;;;11.00;;
7529;SDS011;3806;52.270;10.544;2024-02-28T09:21:08;20.83;;;12.13;;
7529;SDS011;3806;52.270;10.544;2024-02-28T09:23:34;19.23;;;11.25;;
7529;SDS011;3806;52.270;10.544;2024-02-28T09:26:06;23.02;;;12.35;;
7529;SDS011;3806;52.270;10.544;2024-02-28T09:28:32;20.60;;;11.43;;
7529;SDS011;3806;52.270;10.544;2024-02-28T09:30:58;25.30;;;12.25;;
7529;SDS011;3806;52.270;10.544;2024-02-28T09:33:23;21.73;;;11.30;;
7529;SDS011;3806;52.270;10.544;2024-02-28T09:35:49;22.33;;;12.00;;
7529;SDS011;3806;52.270;10.544;2024-02-28T09:38:14;19.20;;;11.15;;
7529;SDS011;3806;52.270;10.544;2024-02-28T09:40:40;19.75;;;9.80;;
7529;SDS011;3806;52.270;10.544;2024-02-28T09:43:08;20.35;;;11.25;;
7529;SDS011;3806;52.270;10.544;2024-02-28T09:45:40;21.33;;;10.30;;
7529;SDS011;3806;52.270;10.544;2024-02-28T09:48:05;19.80;;;10.90;;
7529;SDS011;3806;52.270;10.544;2024-02-28T09:50:32;18.65;;;10.13;;
7529;SDS011;3806;52.270;10.544;2024-02-28T09:52:58;17.08;;;10.23;;
7529;SDS011;3806;52.270;10.544;2024-02-28T09:55:23;20.40;;;11.43;;
7529;SDS011;3806;52.270;10.544;2024-02-28T09:57:49;18.08;;;10.80;;
7529;SDS011;3806;52.270;10.544;2024-02-28T10:00:20;16.13;;;10.40;;
7529;SDS011;3806;52.270;10.544;2024-02-28T10:02:46;18.30;;;11.30;;
7529;SDS011;3806;52.270;10.544;2024-02-28T10:05:15;19.42;;;11.95;;
7529;SDS011;3806;52.270;10.544;2024-02-28T10:07:43;20.58;;;12.25;;
7529;SDS011;3806;52.270;10.544;2024-02-28T10:10:14;21.73;;;12.10;;
7529;SDS011;3806;52.270;10.544;2024-02-28T10:12:42;19.42;;;11.40;;
7529;SDS011;3806;52.270;10.544;2024-02-28T10:15:09;22.50;;;12.88;;
7529;SDS011;3806;52.270;10.544;2024-02-28T10:17:35;21.65;;;12.20;;
7529;SDS011;3806;52.270;10.544;2024-02-28T10:20:01;18.85;;;11.32;;
7529;SDS011;3806;52.270;10.544;2024-02-28T10:22:28;22.75;;;12.20;;
7529;SDS011;3806;52.270;10.544;2024-02-28T10:25:02;22.17;;;11.90;;
7529;SDS011;3806;52.270;10.544;2024-02-28T10:27:31;23.38;;;13.23;;
7529;SDS011;3806;52.270;10.544;2024-02-28T10:29:57;20.35;;;11.00;;
7529;SDS011;3806;52.270;10.544;2024-02-28T10:32:22;25.08;;;13.35;;
7529;SDS011;3806;52.270;10.544;2024-02-28T10:34:48;21.95;;;12.73;;
7529;SDS011;3806;52.270;10.544;2024-02-28T10:37:14;20.88;;;11.85;;
7529;SDS011;3806;52.270;10.544;2024-02-28T10:39:39;23.75;;;13.65;;
7529;SDS011;3806;52.270;10.544;2024-02-28T10:42:07;21.75;;;12.45;;
7529;SDS011;3806;52.270;10.544;2024-02-28T10:44:36;22.08;;;12.95;;
7529;SDS011;3806;52.270;10.544;2024-02-28T10:47:02;26.40;;;12.90;;
7529;SDS011;3806;52.270;10.544;2024-02-28T10:49:28;26.10;;;12.45;;
7529;SDS011;3806;52.270;10.544;2024-02-28T10:51:55;23.80;;;12.32;;
7529;SDS011;3806;52.270;10.544;2024-02-28T10:54:24;25.27;;;14.25;;
7529;SDS011;3806;52.270;10.544;2024-02-28T10:56:53;26.77;;;13.70;;
7529;SDS011;3806;52.270;10.544;2024-02-28T10:59:19;23.00;;;13.20;;
7529;SDS011;3806;52.270;10.544;2024-02-28T11:01:48;27.00;;;13.20;;
7529;SDS011;3806;52.270;10.544;2024-02-28T11:04:15;24.98;;;12.55;;
7529;SDS011;3806;52.270;10.544;2024-02-28T11:06:48;25.15;;;12.73;;
7529;SDS011;3806;52.270;10.544;2024-02-28T11:09:20;26.27;;;13.80;;
7529;SDS011;3806;52.270;10.544;2024-02-28T11:11:53;29.52;;;13.98;;
7529;SDS011;3806;52.270;10.544;2024-02-28T11:14:20;28.35;;;13.52;;
7529;SDS011;3806;52.270;10.544;2024-02-28T11:16:47;24.83;;;12.32;;
7529;SDS011;3806;52.270;10.544;2024-02-28T11:19:19;27.10;;;14.15;;
7529;SDS011;3806;52.270;10.544;2024-02-28T11:21:51;28.30;;;13.85;;
7529;SDS011;3806;52.270;10.544;2024-02-28T11:24:23;25.45;;;12.90;;
7529;SDS011;3806;52.270;10.544;2024-02-28T11:26:50;30.75;;;14.73;;
7529;SDS011;3806;52.270;10.544;2024-02-28T11:29:21;27.50;;;13.88;;
7529;SDS011;3806;52.270;10.544;2024-02-28T11:31:50;24.75;;;14.05;;
7529;SDS011;3806;52.270;10.544;2024-02-28T11:34:16;26.92;;;13.98;;
7529;SDS011;3806;52.270;10.544;2024-02-28T11:36:41;25.00;;;13.02;;
7529;SDS011;3806;52.270;10.544;2024-02-28T11:39:07;26.42;;;13.35;;
7529;SDS011;3806;52.270;10.544;2024-02-28T11:41:32;26.73;;;12.18;;
7529;SDS011;3806;52.270;10.544;2024-02-28T11:43:58;32.30;;;14.80;;
7529;SDS011;3806;52.270;10.544;2024-02-28T11:46:23;29.25;;;14.68;;
7529;SDS011;3806;52.270;10.544;2024-02-28T11:48:49;28.98;;;15.10;;
7529;SDS011;3806;52.270;10.544;2024-02-28T11:51:15;23.90;;;13.98;;
7529;SDS011;3806;52.270;10.544;2024-02-28T11:53:40;29.63;;;14.48;;
7529;SDS011;3806;52.270;10.544;2024-02-28T11:56:06;28.05;;;14.65;;
7529;SDS011;3806;52.270;10.544;2024-02-28T11:58:33;29.45;;;13.93;;
7529;SDS011;3806;52.270;10.544;2024-02-28T12:00:58;26.85;;;13.77;;
7529;SDS011;3806;52.270;10.544;2024-02-28T12:03:24;28.95;;;13.50;;
7529;SDS011;3806;52.270;10.544;2024-02-28T12:05:54;33.13;;;14.68;;
7529;SDS011;3806;52.270;10.544;2024-02-28T12:08:20;26.10;;;13.98;;
7529;SDS011;3806;52.270;10.544;2024-02-28T12:10:46;28.23;;;13.93;;
7529;SDS011;3806;52.270;10.544;2024-02-28T12:13:16;30.60;;;14.82;;
7529;SDS011;3806;52.270;10.544;2024-02-28T12:15:42;27.65;;;14.20;;
7529;SDS011;3806;52.270;10.544;2024-02-28T12:18:08;28.83;;;14.63;;
7529;SDS011;3806;52.270;10.544;2024-02-28T12:20:35;25.90;;;14.38;;
7529;SDS011;3806;52.270;10.544;2024-02-28T12:23:02;32.17;;;13.98;;
7529;SDS011;3806;52.270;10.544;2024-02-28T12:25:28;28.90;;;14.25;;
7529;SDS011;3806;52.270;10.544;2024-02-28T12:27:54;34.38;;;14.20;;
7529;SDS011;3806;52.270;10.544;2024-02-28T12:30:19;26.85;;;12.93;;
7529;SDS011;3806;52.270;10.544;2024-02-28T12:32:46;25.02;;;12.43;;
7529;SDS011;3806;52.270;10.544;2024-02-28T12:35:11;26.75;;;13.43;;
7529;SDS011;3806;52.270;10.544;2024-02-28T12:37:37;29.92;;;14.15;;
7529;SDS011;3806;52.270;10.544;2024-02-28T12:40:04;29.55;;;15.05;;
7529;SDS011;3806;52.270;10.544;2024-02-28T12:42:30;26.13;;;13.77;;
7529;SDS011;3806;52.270;10.544;2024-02-28T12:44:56;30.00;;;13.60;;
7529;SDS011;3806;52.270;10.544;2024-02-28T12:47:22;30.23;;;14.60;;
7529;SDS011;3806;52.270;10.544;2024-02-28T12:49:47;29.17;;;14.80;;
7529;SDS011;3806;52.270;10.544;2024-02-28T12:52:13;26.85;;;15.00;;
7529;SDS011;3806;52.270;10.544;2024-02-28T12:54:38;31.05;;;14.23;;
7529;SDS011;3806;52.270;10.544;2024-02-28T12:57:04;26.55;;;13.05;;
7529;SDS011;3806;52.270;10.544;2024-02-28T12:59:31;27.20;;;13.88;;
7529;SDS011;3806;52.270;10.544;2024-02-28T13:01:57;31.58;;;14.70;;
7529;SDS011;3806;52.270;10.544;2024-02-28T13:04:23;29.08;;;14.95;;
7529;SDS011;3806;52.270;10.544;2024-02-28T13:06:50;29.83;;;14.70;;
7529;SDS011;3806;52.270;10.544;2024-02-28T13:09:18;25.60;;;13.98;;
7529;SDS011;3806;52.270;10.544;2024-02-28T13:11:43;29.30;;;13.90;;
7529;SDS011;3806;52.270;10.544;2024-02-28T13:14:09;26.52;;;14.02;;
7529;SDS011;3806;52.270;10.544;2024-02-28T13:16:35;28.73;;;13.45;;
7529;SDS011;3806;52.270;10.544;2024-02-28T13:19:01;28.35;;;13.90;;
7529;SDS011;3806;52.270;10.544;2024-02-28T13:21:27;25.15;;;13.95;;
7529;SDS011;3806;52.270;10.544;2024-02-28T13:23:53;25.23;;;13.55;;
7529;SDS011;3806;52.270;10.544;2024-02-28T13:26:18;32.50;;;13.38;;
7529;SDS011;3806;52.270;10.544;2024-02-28T13:28:44;26.85;;;14.25;;
7529;SDS011;3806;52.270;10.544;2024-02-28T13:31:10;25.98;;;12.77;;
7529;SDS011;3806;52.270;10.544;2024-02-28T13:33:35;29.75;;;14.18;;
7529;SDS011;3806;52.270;10.544;2024-02-28T13:36:02;25.15;;;13.00;;
7529;SDS011;3806;52.270;10.544;2024-02-28T13:38:28;25.02;;;12.85;;
7529;SDS011;3806;52.270;10.544;2024-02-28T13:40:54;24.52;;;14.05;;
7529;SDS011;3806;52.270;10.544;2024-02-28T13:43:19;28.08;;;14.55;;
7529;SDS011;3806;52.270;10.544;2024-02-28T13:45:48;28.23;;;14.55;;
7529;SDS011;3806;52.270;10.544;2024-02-28T13:50:43;27.38;;;13.82;;
7529;SDS011;3806;52.270;10.544;2024-02-28T13:53:09;22.13;;;11.90;;
7529;SDS011;3806;52.270;10.544;2024-02-28T13:55:34;26.48;;;12.52;;
7529;SDS011;3806;52.270;10.544;2024-02-28T13:58:00;26.45;;;13.43;;
7529;SDS011;3806;52.270;10.544;2024-02-28T14:00:25;25.08;;;12.80;;
7529;SDS011;3806;52.270;10.544;2024-02-28T14:02:51;24.65;;;13.43;;
7529;SDS011;3806;52.270;10.544;2024-02-28T14:05:17;22.92;;;13.50;;
7529;SDS011;3806;52.270;10.544;2024-02-28T14:07:42;26.88;;;12.40;;
7529;SDS011;3806;52.270;10.544;2024-02-28T14:10:08;26.40;;;12.98;;
7529;SDS011;3806;52.270;10.544;2024-02-28T14:12:36;28.73;;;13.77;;
7529;SDS011;3806;52.270;10.544;2024-02-28T14:15:01;23.17;;;11.75;;
7529;SDS011;3806;52.270;10.544;2024-02-28T14:17:27;25.00;;;12.68;;
7529;SDS011;3806;52.270;10.544;2024-02-28T14:19:53;22.65;;;11.77;;
7529;SDS011;3806;52.270;10.544;2024-02-28T14:22:18;26.83;;;12.32;;
7529;SDS011;3806;52.270;10.544;2024-02-28T14:24:44;25.38;;;12.82;;
7529;SDS011;3806;52.270;10.544;2024-02-28T14:27:09;25.60;;;12.18;;
7529;SDS011;3806;52.270;10.544;2024-02-28T14:29:35;22.92;;;12.85;;
7529;SDS011;3806;52.270;10.544;2024-02-28T14:32:00;23.98;;;12.85;;
7529;SDS011;3806;52.270;10.544;2024-02-28T14:34:26;20.23;;;11.10;;